createdAt,value
2022-12-06T00:02:01.459Z,10.40
2022-12-06T00:04:31.866Z,10.50
2022-12-06T00:07:02.194Z,10.50
2022-12-06T00:09:36.184Z,10.50
2022-12-06T00:12:06.650Z,10.50
2022-12-06T00:14:37.275Z,10.40
2022-12-06T00:17:07.587Z,10.50
2022-12-06T00:19:38.005Z,10.40
2022-12-06T00:22:08.337Z,9.40
2022-12-06T00:24:41.759Z,10.40
2022-12-06T00:27:12.463Z,10.40
2022-12-06T00:29:42.848Z,10.40
2022-12-06T00:32:19.110Z,9.60
2022-12-06T00:34:50.019Z,10.30
2022-12-06T00:37:20.456Z,10.30
2022-12-06T00:39:53.411Z,10.30
2022-12-06T00:42:23.852Z,10.30
2022-12-06T00:44:54.484Z,10.40
2022-12-06T00:47:24.984Z,10.30
2022-12-06T00:49:55.850Z,10.30
2022-12-06T00:52:26.290Z,10.30
2022-12-06T00:54:59.332Z,10.30
2022-12-06T00:57:29.662Z,10.20
2022-12-06T01:00:02.502Z,10.20
2022-12-06T01:02:36.518Z,10.20
2022-12-06T01:05:07.314Z,10.30
2022-12-06T01:07:37.700Z,10.30
2022-12-06T01:10:11.701Z,10.20
2022-12-06T01:12:41.851Z,10.30
2022-12-06T01:15:13.343Z,10.30
2022-12-06T01:17:43.534Z,10.30
2022-12-06T01:20:14.288Z,10.30
2022-12-06T01:22:44.287Z,10.30
2022-12-06T01:25:17.179Z,9.30
2022-12-06T01:27:47.390Z,10.30
2022-12-06T01:30:17.805Z,10.40
2022-12-06T01:32:47.946Z,10.30
2022-12-06T01:35:18.292Z,10.30
2022-12-06T01:37:48.463Z,10.30
2022-12-06T01:40:21.270Z,10.30
2022-12-06T01:42:51.284Z,10.10
2022-12-06T01:45:21.485Z,10.20
2022-12-06T01:47:51.759Z,9.90
2022-12-06T01:50:26.477Z,10.20
2022-12-06T01:53:01.080Z,10.20
2022-12-06T01:55:38.266Z,10.20
2022-12-06T01:58:13.224Z,10.20
2022-12-06T02:00:43.487Z,10.20
2022-12-06T02:03:19.795Z,10.20
2022-12-06T02:05:50.272Z,10.20
2022-12-06T02:08:22.561Z,10.20
2022-12-06T02:10:55.648Z,10.20
2022-12-06T02:13:26.579Z,10.20
2022-12-06T02:16:05.483Z,10.20
2022-12-06T02:18:42.627Z,10.20
2022-12-06T02:21:20.348Z,10.10
2022-12-06T02:24:23.264Z,10.20
2022-12-06T02:27:07.281Z,10.10
2022-12-06T02:30:11.121Z,10.20
2022-12-06T02:32:54.908Z,10.20
2022-12-06T02:35:32.800Z,10.20
2022-12-06T02:38:13.051Z,10.20
2022-12-06T02:40:48.529Z,10.20
2022-12-06T02:43:23.991Z,10.10
2022-12-06T02:45:58.146Z,10.20
2022-12-06T02:48:30.985Z,10.10
2022-12-06T02:51:04.503Z,10.10
2022-12-06T02:53:38.334Z,10.10
2022-12-06T02:56:09.106Z,10.10
2022-12-06T02:58:39.981Z,10.00
2022-12-06T03:01:15.631Z,10.10
2022-12-06T03:03:57.008Z,10.10
2022-12-06T03:06:48.457Z,10.10
2022-12-06T03:09:31.735Z,10.10
2022-12-06T03:12:09.595Z,10.10
2022-12-06T03:14:48.162Z,10.10
2022-12-06T03:17:24.808Z,9.60
2022-12-06T03:20:01.558Z,10.00
2022-12-06T03:22:41.877Z,10.10
2022-12-06T03:25:14.232Z,10.10
2022-12-06T03:27:45.670Z,10.20
2022-12-06T03:30:17.814Z,9.90
2022-12-06T03:32:51.164Z,10.10
2022-12-06T03:35:28.860Z,10.10
2022-12-06T03:38:04.432Z,10.10
2022-12-06T03:40:38.080Z,10.10
2022-12-06T03:43:08.711Z,10.10
2022-12-06T03:45:44.710Z,10.10
2022-12-06T03:48:18.527Z,10.10
2022-12-06T03:50:58.491Z,10.10
2022-12-06T03:53:29.089Z,10.10
2022-12-06T03:55:59.993Z,10.10
2022-12-06T03:58:30.500Z,10.10
2022-12-06T04:01:05.011Z,10.10
2022-12-06T04:03:35.137Z,10.10
2022-12-06T04:06:09.374Z,10.10
2022-12-06T04:08:39.931Z,10.10
2022-12-06T04:11:10.315Z,10.10
2022-12-06T04:13:40.993Z,10.10
2022-12-06T04:16:24.349Z,10.10
2022-12-06T04:18:54.530Z,10.20
2022-12-06T04:21:39.617Z,10.20
2022-12-06T04:24:10.008Z,10.20
2022-12-06T04:26:40.112Z,10.10
2022-12-06T04:29:22.538Z,10.10
2022-12-06T04:32:05.179Z,10.10
2022-12-06T04:34:47.887Z,10.10
2022-12-06T04:37:32.949Z,10.00
2022-12-06T04:40:03.270Z,10.00
2022-12-06T04:42:45.957Z,10.00
2022-12-06T04:45:15.946Z,10.00
2022-12-06T04:47:46.259Z,10.00
2022-12-06T04:50:16.442Z,10.00
2022-12-06T04:52:49.137Z,10.40
2022-12-06T04:55:19.494Z,10.00
2022-12-06T05:00:23.524Z,10.00
2022-12-06T05:02:56.035Z,9.10
2022-12-06T05:05:28.781Z,11.30
2022-12-06T05:08:01.961Z,10.00
2022-12-06T05:10:32.066Z,10.00
2022-12-06T05:13:02.307Z,10.00
2022-12-06T05:15:33.308Z,10.00
2022-12-06T05:18:03.365Z,10.00
2022-12-06T05:20:33.636Z,9.90
2022-12-06T05:23:06.439Z,9.90
2022-12-06T05:25:36.446Z,9.80
2022-12-06T05:28:06.528Z,9.80
2022-12-06T05:30:36.611Z,10.20
2022-12-06T05:33:06.808Z,9.70
2022-12-06T05:35:36.933Z,10.60
2022-12-06T05:38:09.610Z,9.60
2022-12-06T05:40:42.211Z,9.50
2022-12-06T05:43:12.338Z,9.40
2022-12-06T05:45:43.003Z,9.50
2022-12-06T05:48:13.583Z,9.40
2022-12-06T05:50:43.586Z,9.80
2022-12-06T05:53:16.805Z,9.30
2022-12-06T05:55:47.299Z,9.30
2022-12-06T05:58:18.288Z,9.20
2022-12-06T06:00:50.223Z,9.10
2022-12-06T06:03:21.229Z,7.10
2022-12-06T06:05:52.472Z,8.90
2022-12-06T06:08:25.153Z,8.50
2022-12-06T06:10:55.503Z,10.00
2022-12-06T06:13:25.870Z,8.80
2022-12-06T06:15:55.931Z,8.80
2022-12-06T06:18:26.309Z,8.80
2022-12-06T06:20:59.398Z,8.70
2022-12-06T06:23:32.536Z,8.70
2022-12-06T06:26:02.698Z,8.70
2022-12-06T06:28:35.312Z,8.20
2022-12-06T06:31:06.174Z,8.70
2022-12-06T06:33:36.747Z,8.70
2022-12-06T06:36:07.770Z,8.70
2022-12-06T06:38:43.288Z,8.70
2022-12-06T06:41:13.263Z,8.80
2022-12-06T06:43:43.451Z,8.80
2022-12-06T06:46:13.622Z,8.80
2022-12-06T06:48:43.850Z,9.60
2022-12-06T06:51:15.753Z,8.90
2022-12-06T06:53:53.201Z,8.90
2022-12-06T06:56:30.630Z,8.80
2022-12-06T06:59:02.492Z,8.90
2022-12-06T07:01:41.749Z,8.80
2022-12-06T07:04:25.853Z,8.90
2022-12-06T07:06:55.905Z,8.90
2022-12-06T07:09:28.903Z,8.90
2022-12-06T07:11:59.137Z,10.50
2022-12-06T07:14:29.531Z,8.90
2022-12-06T07:16:59.621Z,10.80
2022-12-06T07:22:19.694Z,9.00
2022-12-06T07:25:04.574Z,9.00
2022-12-06T07:27:37.505Z,9.10
2022-12-06T07:30:08.353Z,9.00
2022-12-06T07:32:38.842Z,9.00
2022-12-06T07:35:13.184Z,9.00
2022-12-06T07:37:45.640Z,8.90
2022-12-06T07:40:26.750Z,9.10
2022-12-06T07:43:22.133Z,9.00
2022-12-06T07:46:04.709Z,9.00
2022-12-06T07:48:36.992Z,9.00
2022-12-06T07:51:08.541Z,9.00
2022-12-06T07:53:42.055Z,9.00
2022-12-06T07:56:15.042Z,9.00
2022-12-06T07:58:45.416Z,9.00
2022-12-06T08:01:15.569Z,9.10
2022-12-06T08:03:45.715Z,9.20
2022-12-06T08:06:19.022Z,9.30
2022-12-06T08:08:55.457Z,9.30
2022-12-06T08:11:28.886Z,9.30
2022-12-06T08:13:59.119Z,9.50
2022-12-06T08:16:50.030Z,9.40
2022-12-06T08:19:20.077Z,9.50
2022-12-06T08:21:50.570Z,8.80
2022-12-06T08:24:21.608Z,9.50
2022-12-06T08:26:54.505Z,9.60
2022-12-06T08:29:25.677Z,9.60
2022-12-06T08:31:55.769Z,9.70
2022-12-06T08:34:25.892Z,9.70
2022-12-06T08:36:59.074Z,9.70
2022-12-06T08:39:33.505Z,9.80
2022-12-06T08:42:08.056Z,9.80
2022-12-06T08:44:38.206Z,9.90
2022-12-06T08:47:08.670Z,9.90
2022-12-06T08:49:38.776Z,10.00
2022-12-06T08:52:08.916Z,11.10
2022-12-06T08:54:39.383Z,10.50
2022-12-06T08:57:12.323Z,11.50
2022-12-06T08:59:42.334Z,12.90
2022-12-06T09:02:13.872Z,13.70
2022-12-06T09:04:44.195Z,13.60
2022-12-06T09:07:14.424Z,13.20
2022-12-06T09:09:46.187Z,12.70
2022-12-06T09:12:18.820Z,12.50
2022-12-06T09:14:49.005Z,13.20
2022-12-06T09:17:19.258Z,13.70
2022-12-06T09:19:49.598Z,13.50
2022-12-06T09:22:19.646Z,13.10
2022-12-06T09:24:49.724Z,11.90
2022-12-06T09:27:23.027Z,12.40
2022-12-06T09:29:53.202Z,12.20
2022-12-06T09:32:23.348Z,12.00
2022-12-06T09:37:24.246Z,11.80
2022-12-06T09:39:57.898Z,11.70
2022-12-06T09:42:57.603Z,11.70
2022-12-06T09:45:47.526Z,11.70
2022-12-06T09:48:49.277Z,11.70
2022-12-06T09:51:34.612Z,11.70
2022-12-06T09:54:19.452Z,11.80
2022-12-06T09:56:54.549Z,11.80
2022-12-06T09:59:37.227Z,11.80
2022-12-06T10:02:30.929Z,11.80
2022-12-06T10:05:33.135Z,11.90
2022-12-06T10:08:14.783Z,11.90
2022-12-06T10:10:56.789Z,11.90
2022-12-06T10:13:35.916Z,11.90
2022-12-06T10:16:18.910Z,12.00
2022-12-06T10:19:00.778Z,12.10
2022-12-06T10:21:45.768Z,12.20
2022-12-06T10:24:27.297Z,12.20
2022-12-06T10:27:00.193Z,12.20
2022-12-06T10:29:39.209Z,12.30
2022-12-06T10:32:21.002Z,12.30
2022-12-06T10:35:04.226Z,12.30
2022-12-06T10:37:45.340Z,12.40
2022-12-06T10:40:20.846Z,12.40
2022-12-06T10:42:56.991Z,12.40
2022-12-06T10:45:44.939Z,12.40
2022-12-06T10:48:23.503Z,12.40
2022-12-06T10:50:59.338Z,12.40
2022-12-06T10:53:34.683Z,12.50
2022-12-06T10:56:13.851Z,12.50
2022-12-06T10:58:51.506Z,12.50
2022-12-06T11:01:22.638Z,12.50
2022-12-06T11:04:02.769Z,12.50
2022-12-06T11:06:37.994Z,12.50
2022-12-06T11:09:16.623Z,12.50
2022-12-06T11:11:48.041Z,12.50
2022-12-06T11:14:23.914Z,12.40
2022-12-06T11:16:58.864Z,12.40
2022-12-06T11:19:36.632Z,12.40
2022-12-06T11:22:11.574Z,12.40
2022-12-06T11:24:47.907Z,12.40
2022-12-06T11:27:23.005Z,12.50
2022-12-06T11:29:54.241Z,12.50
2022-12-06T11:32:24.066Z,12.50
2022-12-06T11:34:59.011Z,12.50
2022-12-06T11:37:32.477Z,12.50
2022-12-06T11:40:10.345Z,12.70
2022-12-06T11:42:41.219Z,12.80
2022-12-06T11:45:18.575Z,12.80
2022-12-06T11:47:49.529Z,12.90
2022-12-06T11:50:23.392Z,13.10
2022-12-06T11:52:57.890Z,13.30
2022-12-06T11:55:30.817Z,13.90
2022-12-06T11:58:05.060Z,13.60
2022-12-06T12:00:35.272Z,13.70
2022-12-06T12:03:05.602Z,13.70
2022-12-06T12:05:39.554Z,13.70
2022-12-06T12:08:19.133Z,13.60
2022-12-06T12:11:00.510Z,13.60
2022-12-06T12:13:55.633Z,13.50
2022-12-06T12:16:27.818Z,13.40
2022-12-06T12:19:01.109Z,13.40
2022-12-06T12:21:40.747Z,13.40
2022-12-06T12:27:50.642Z,13.40
2022-12-06T12:30:32.748Z,13.50
2022-12-06T12:33:21.969Z,13.50
2022-12-06T12:35:55.070Z,13.40
2022-12-06T12:38:37.876Z,13.20
2022-12-06T12:41:35.329Z,13.10
2022-12-06T12:44:35.796Z,13.00
2022-12-06T12:47:00.299Z,13.00
2022-12-06T12:49:34.452Z,13.00
2022-12-06T12:52:07.243Z,12.90
2022-12-06T12:54:40.414Z,13.00
2022-12-06T12:57:16.554Z,13.10
2022-12-06T12:59:47.806Z,13.10
2022-12-06T13:02:27.100Z,13.10
2022-12-06T13:05:31.352Z,13.10
2022-12-06T13:07:55.920Z,13.20
2022-12-06T13:10:33.587Z,13.20
2022-12-06T13:13:07.366Z,13.20
2022-12-06T13:15:40.738Z,13.30
2022-12-06T13:18:18.061Z,13.30
2022-12-06T13:20:50.523Z,13.20
2022-12-06T13:23:24.081Z,13.20
2022-12-06T13:26:03.684Z,13.00
2022-12-06T13:28:42.696Z,12.90
2022-12-06T13:31:18.346Z,12.90
2022-12-06T13:33:52.720Z,12.90
2022-12-06T13:36:24.421Z,12.90
2022-12-06T13:38:56.162Z,12.90
2022-12-06T13:42:16.813Z,12.80
2022-12-06T13:44:59.804Z,12.70
2022-12-06T13:47:53.502Z,12.70
2022-12-06T13:50:56.280Z,12.70
2022-12-06T13:53:28.502Z,12.60
2022-12-06T13:56:02.317Z,12.40
2022-12-06T13:58:44.812Z,11.90
2022-12-06T14:01:43.548Z,12.30
2022-12-06T14:04:52.963Z,12.30
2022-12-06T14:07:36.427Z,12.20
2022-12-06T14:10:15.754Z,12.10
2022-12-06T14:15:21.674Z,11.90
2022-12-06T14:18:03.039Z,12.00
2022-12-06T14:20:36.490Z,12.00
2022-12-06T14:23:06.605Z,12.10
2022-12-06T14:25:36.784Z,12.10
2022-12-06T14:28:08.930Z,12.10
2022-12-06T14:30:39.423Z,12.00
2022-12-06T14:33:25.372Z,12.00
2022-12-06T14:35:57.221Z,12.00
2022-12-06T14:38:30.355Z,12.10
2022-12-06T14:41:13.252Z,12.10
2022-12-06T14:43:44.978Z,12.00
2022-12-06T14:46:17.839Z,11.90
2022-12-06T14:49:18.127Z,12.00
2022-12-06T14:51:48.338Z,11.90
2022-12-06T14:54:22.484Z,11.90
2022-12-06T14:56:52.785Z,11.90
2022-12-06T15:00:02.910Z,11.90
2022-12-06T15:02:28.448Z,11.90
2022-12-06T15:05:02.185Z,11.50
2022-12-06T15:07:35.353Z,11.90
2022-12-06T15:10:25.657Z,12.00
2022-12-06T15:12:59.209Z,12.00
2022-12-06T15:15:37.839Z,11.90
2022-12-06T15:18:19.645Z,11.90
2022-12-06T15:21:05.333Z,12.00
2022-12-06T15:23:41.400Z,12.00
2022-12-06T15:26:14.785Z,12.00
2022-12-06T15:28:44.903Z,11.90
2022-12-06T15:31:20.749Z,11.10
2022-12-06T15:33:51.832Z,11.90
2022-12-06T15:36:26.932Z,11.90
2022-12-06T15:38:57.079Z,11.90
2022-12-06T15:41:29.669Z,11.90
2022-12-06T15:44:00.294Z,11.90
2022-12-06T15:46:32.955Z,11.90
2022-12-06T15:49:03.440Z,11.90
2022-12-06T15:51:36.289Z,11.80
2022-12-06T15:54:07.393Z,11.50
2022-12-06T15:56:37.498Z,11.80
2022-12-06T15:59:07.683Z,11.80
2022-12-06T16:01:45.194Z,11.80
2022-12-06T16:04:20.766Z,11.80
2022-12-06T16:06:53.951Z,11.80
2022-12-06T16:09:24.230Z,11.90
2022-12-06T16:11:54.319Z,11.00
2022-12-06T16:14:24.908Z,11.80
2022-12-06T16:16:55.032Z,11.80
2022-12-06T16:19:45.323Z,11.70
2022-12-06T16:22:18.167Z,11.80
2022-12-06T16:24:50.826Z,11.70
2022-12-06T16:27:24.075Z,11.80
2022-12-06T16:29:54.271Z,11.60
2022-12-06T16:32:27.494Z,11.60
2022-12-06T16:34:57.642Z,11.60
2022-12-06T16:37:30.490Z,11.50
2022-12-06T16:40:03.757Z,11.50
2022-12-06T16:42:33.814Z,11.50
2022-12-06T16:45:04.298Z,11.50
2022-12-06T16:47:39.299Z,11.50
2022-12-06T16:50:13.257Z,11.80
2022-12-06T16:52:46.042Z,11.50
2022-12-06T16:55:16.252Z,12.20
2022-12-06T16:57:46.443Z,11.60
2022-12-06T17:00:18.787Z,11.60
2022-12-06T17:03:10.289Z,11.70
2022-12-06T17:05:40.658Z,11.70
2022-12-06T17:08:21.711Z,11.60
2022-12-06T17:11:12.649Z,11.60
2022-12-06T17:16:33.091Z,11.80
2022-12-06T17:19:10.495Z,11.50
2022-12-06T17:21:40.838Z,11.50
2022-12-06T17:24:16.230Z,11.50
2022-12-06T17:26:46.642Z,11.50
2022-12-06T17:29:16.727Z,11.50
2022-12-06T17:31:47.575Z,11.60
2022-12-06T17:34:19.585Z,11.50
2022-12-06T17:36:50.412Z,11.50
2022-12-06T17:39:24.197Z,11.50
2022-12-06T17:42:07.109Z,11.50
2022-12-06T17:44:38.938Z,11.50
2022-12-06T17:47:09.609Z,11.50
2022-12-06T17:49:39.862Z,11.40
2022-12-06T17:52:10.049Z,11.50
2022-12-06T17:54:42.689Z,11.50
2022-12-06T17:57:17.827Z,11.50
2022-12-06T17:59:48.431Z,11.50
2022-12-06T18:02:20.324Z,11.50
2022-12-06T18:04:50.934Z,11.40
2022-12-06T18:07:21.694Z,11.40
2022-12-06T18:09:54.551Z,11.40
2022-12-06T18:12:25.820Z,11.40
2022-12-06T18:17:26.456Z,11.30
2022-12-06T18:19:56.615Z,11.50
2022-12-06T18:22:27.009Z,11.10
2022-12-06T18:25:00.022Z,11.10
2022-12-06T18:27:30.377Z,11.10
2022-12-06T18:30:00.868Z,11.00
2022-12-06T18:32:31.300Z,10.90
2022-12-06T18:35:01.692Z,10.90
2022-12-06T18:37:32.433Z,12.00
2022-12-06T18:40:05.313Z,10.60
2022-12-06T18:42:39.012Z,11.00
2022-12-06T18:45:10.364Z,10.90
2022-12-06T18:47:40.223Z,11.00
2022-12-06T18:50:17.483Z,11.00
2022-12-06T18:52:47.806Z,11.00
2022-12-06T18:55:20.682Z,11.00
2022-12-06T18:57:50.900Z,11.00
2022-12-06T19:00:21.909Z,10.80
2022-12-06T19:02:52.304Z,10.80
2022-12-06T19:05:46.034Z,10.90
2022-12-06T19:08:12.943Z,10.90
2022-12-06T19:10:45.820Z,10.90
2022-12-06T19:13:16.090Z,10.90
2022-12-06T19:15:46.418Z,11.00
2022-12-06T19:18:16.601Z,11.00
2022-12-06T19:20:46.771Z,11.00
2022-12-06T19:23:16.992Z,10.40
2022-12-06T19:25:49.843Z,11.00
2022-12-06T19:28:20.022Z,11.10
2022-12-06T19:30:59.300Z,11.00
2022-12-06T19:33:30.411Z,11.00
2022-12-06T19:36:02.321Z,10.90
2022-12-06T19:38:32.776Z,10.90
2022-12-06T19:41:06.399Z,10.90
2022-12-06T19:43:49.463Z,10.80
2022-12-06T19:46:21.568Z,11.00
2022-12-06T19:48:52.121Z,10.90
2022-12-06T19:51:22.752Z,10.90
2022-12-06T19:53:53.081Z,10.90
2022-12-06T19:56:26.234Z,11.00
2022-12-06T19:58:57.096Z,11.00
2022-12-06T20:01:30.301Z,11.10
2022-12-06T20:04:01.037Z,11.10
2022-12-06T20:06:31.408Z,11.00
2022-12-06T20:09:03.284Z,11.00
2022-12-06T20:11:51.561Z,10.90
2022-12-06T20:14:28.701Z,10.80
2022-12-06T20:16:59.048Z,10.80
2022-12-06T20:19:31.492Z,10.80
2022-12-06T20:22:02.039Z,10.90
2022-12-06T20:24:32.696Z,10.90
2022-12-06T20:27:05.918Z,10.80
2022-12-06T20:29:36.161Z,10.80
2022-12-06T20:32:07.140Z,10.80
2022-12-06T20:34:37.968Z,10.80
2022-12-06T20:37:08.892Z,10.90
2022-12-06T20:39:39.506Z,10.80
2022-12-06T20:42:12.492Z,10.90
2022-12-06T20:44:43.067Z,10.90
2022-12-06T20:47:13.417Z,10.90
2022-12-06T20:49:43.583Z,10.90
2022-12-06T20:52:14.040Z,10.90
2022-12-06T20:54:44.276Z,10.90
2022-12-06T20:57:17.267Z,10.90
2022-12-06T20:59:47.484Z,11.00
2022-12-06T21:02:17.908Z,11.00
2022-12-06T21:04:48.331Z,11.00
2022-12-06T21:07:43.046Z,11.00
2022-12-06T21:10:14.618Z,11.00
2022-12-06T21:12:49.578Z,11.00
2022-12-06T21:15:20.297Z,11.10
2022-12-06T21:17:50.420Z,11.10
2022-12-06T21:20:20.719Z,11.10
2022-12-06T21:22:51.539Z,11.10
2022-12-06T21:25:21.654Z,11.10
2022-12-06T21:27:54.401Z,11.10
2022-12-06T21:30:24.646Z,11.10
2022-12-06T21:32:54.857Z,11.10
2022-12-06T21:35:25.127Z,11.10
2022-12-06T21:37:55.247Z,11.10
2022-12-06T21:40:25.733Z,11.00
2022-12-06T21:42:58.601Z,11.00
2022-12-06T21:45:31.920Z,10.90
2022-12-06T21:48:02.173Z,11.00
2022-12-06T21:50:32.349Z,10.90
2022-12-06T21:53:02.628Z,10.90
2022-12-06T21:55:32.798Z,10.90
2022-12-06T21:58:05.553Z,10.90
2022-12-06T22:00:35.788Z,10.90
2022-12-06T22:03:06.006Z,10.90
2022-12-06T22:05:36.212Z,10.90
2022-12-06T22:08:06.383Z,10.90
2022-12-06T22:10:36.697Z,10.90
2022-12-06T22:13:09.659Z,10.80
2022-12-06T22:15:40.380Z,10.20
2022-12-06T22:18:10.551Z,10.90
2022-12-06T22:20:40.754Z,10.80
2022-12-06T22:23:10.852Z,10.40
2022-12-06T22:25:42.470Z,10.80
2022-12-06T22:28:15.182Z,10.80
2022-12-06T22:30:45.412Z,10.80
2022-12-06T22:33:15.450Z,10.90
2022-12-06T22:35:49.058Z,10.90
2022-12-06T22:38:19.385Z,10.60
2022-12-06T22:41:09.368Z,10.90
2022-12-06T22:43:42.148Z,11.70
2022-12-06T22:46:14.294Z,11.00
2022-12-06T22:48:45.294Z,10.90
2022-12-06T22:51:17.230Z,10.90
2022-12-06T22:53:49.177Z,11.00
2022-12-06T22:56:19.689Z,11.00
2022-12-06T22:58:54.302Z,11.00
2022-12-06T23:01:27.383Z,10.80
2022-12-06T23:03:58.565Z,10.80
2022-12-06T23:06:29.539Z,10.80
2022-12-06T23:08:59.966Z,10.90
2022-12-06T23:11:31.870Z,10.70
2022-12-06T23:14:04.999Z,10.60
2022-12-06T23:16:35.882Z,10.80
2022-12-06T23:19:06.873Z,10.40
2022-12-06T23:21:38.886Z,10.20
2022-12-06T23:24:12.490Z,10.30
2022-12-06T23:26:45.113Z,10.20
2022-12-06T23:29:18.611Z,10.20
2022-12-06T23:31:49.371Z,10.10
2022-12-06T23:34:22.451Z,10.10
2022-12-06T23:36:53.309Z,10.10
2022-12-06T23:41:53.816Z,9.90
2022-12-06T23:44:29.919Z,10.00
2022-12-06T23:47:00.551Z,10.00
2022-12-06T23:49:32.220Z,9.90
2022-12-06T23:52:02.498Z,9.90
2022-12-06T23:54:41.873Z,9.90
2022-12-06T23:57:15.097Z,9.80
2022-12-06T23:59:47.861Z,9.80
